Time;durP1;ratioP1;P1;durP2;ratioP2;P2;SDS_P1;SDS_P2;PMS_P1;PMS_P2;Temp;Humidity;BMP_temperature;BMP_pressure;BME280_temperature;BME280_humidity;BME280_pressure;Samples;Min_cycle;Max_cycle;Signal;HPM_P1;HPM_P2
2022/01/21 00:01:23;;;;;;;;;;;1.20;1.00;;;;;;5069878;28;20000;-82
2022/01/21 00:03:48;;;;;;;;;;;1.20;1.00;;;;;;5073381;28;19919;-82
2022/01/21 00:06:14;;;;;;;;;;;1.20;1.00;;;;;;5082107;28;20003;-83
2022/01/21 00:08:42;;;;;;;;;;;1.30;1.00;;;;;;5081512;28;19919;-82
2022/01/21 00:11:10;;;;;;;;;;;1.30;1.00;;;;;;5064348;28;19912;-82
2022/01/21 00:13:36;;;;;;;;;;;1.30;1.00;;;;;;5078598;28;19919;-82
2022/01/21 00:16:03;;;;;;;;;;;1.40;1.00;;;;;;5077080;28;19987;-82
2022/01/21 00:18:29;;;;;;;;;;;1.40;1.00;;;;;;5075546;28;20288;-82
2022/01/21 00:31:52;;;;;;;;;;;1.70;1.00;;;;;;5081534;28;19927;-82
2022/01/21 00:34:17;;;;;;;;;;;1.70;1.00;;;;;;5074113;28;19973;-81
2022/01/21 00:36:42;;;;;;;;;;;1.70;1.00;;;;;;5076305;28;19913;-82
2022/01/21 00:39:10;;;;;;;;;;;1.70;1.00;;;;;;5076478;28;20376;-82
2022/01/21 00:41:41;;;;;;;;;;;1.70;1.00;;;;;;5083238;28;19916;-82
2022/01/21 00:44:06;;;;;;;;;;;1.70;1.00;;;;;;5075572;28;19913;-82
2022/01/21 00:46:32;;;;;;;;;;;1.60;1.00;;;;;;5081914;28;19919;-82
2022/01/21 00:48:57;;;;;;;;;;;1.50;1.00;;;;;;5071552;28;19913;-82
2022/01/21 00:51:23;;;;;;;;;;;1.50;1.00;;;;;;5081576;28;19951;-83
2022/01/21 00:53:48;;;;;;;;;;;1.50;1.00;;;;;;5076755;28;19909;-82
2022/01/21 00:56:14;;;;;;;;;;;1.50;1.00;;;;;;5082963;28;19920;-82
2022/01/21 00:58:39;;;;;;;;;;;1.40;1.00;;;;;;5073974;28;19919;-82
2022/01/21 01:01:04;;;;;;;;;;;1.40;1.00;;;;;;5067106;28;19920;-82
2022/01/21 01:03:30;;;;;;;;;;;1.40;1.00;;;;;;5074192;28;19955;-82
2022/01/21 01:05:56;;;;;;;;;;;1.30;1.00;;;;;;5080852;28;19912;-82
2022/01/21 01:08:22;;;;;;;;;;;1.30;1.00;;;;;;5077180;28;19913;-82
2022/01/21 01:11:13;;;;;;;;;;;1.30;1.00;;;;;;5077572;28;19924;-82
2022/01/21 01:21:44;;;;;;;;;;;1.20;1.00;;;;;;5076353;28;19935;-82
2022/01/21 01:29:21;;;;;;;;;;;1.20;1.00;;;;;;5075556;28;19939;-82
2022/01/21 01:31:47;;;;;;;;;;;1.20;1.00;;;;;;5082123;28;20346;-81
2022/01/21 01:34:13;;;;;;;;;;;1.20;1.00;;;;;;5076544;28;19920;-82
2022/01/21 01:36:40;;;;;;;;;;;1.30;1.00;;;;;;5069251;28;20287;-83
2022/01/21 01:49:56;;;;;;;;;;;1.50;1.00;;;;;;5076933;28;19981;-82
2022/01/21 01:52:22;;;;;;;;;;;1.50;1.00;;;;;;5079468;28;19917;-82
2022/01/21 01:54:50;;;;;;;;;;;1.50;1.00;;;;;;5078287;28;19912;-82
2022/01/21 01:57:16;;;;;;;;;;;1.60;1.00;;;;;;5081353;28;19955;-82
2022/01/21 01:59:41;;;;;;;;;;;1.60;1.00;;;;;;5065232;28;19939;-82
2022/01/21 02:02:12;;;;;;;;;;;1.70;1.00;;;;;;5073575;28;19931;-82
2022/01/21 02:04:38;;;;;;;;;;;1.70;1.00;;;;;;5073326;28;19913;-82
2022/01/21 02:07:04;;;;;;;;;;;1.70;1.00;;;;;;5078986;28;19909;-82
2022/01/21 02:09:30;;;;;;;;;;;1.70;1.00;;;;;;5072481;28;19966;-82
2022/01/21 02:11:56;;;;;;;;;;;1.70;1.00;;;;;;5082135;28;19919;-82
2022/01/21 02:14:32;;;;;;;;;;;1.70;1.00;;;;;;5069845;28;19909;-82
2022/01/21 02:22:18;;;;;;;;;;;1.60;1.00;;;;;;5056868;28;19966;-82
2022/01/21 02:24:54;;;;;;;;;;;1.60;1.00;;;;;;5074288;28;19940;-82
2022/01/21 02:27:19;;;;;;;;;;;1.60;1.00;;;;;;5069131;28;19913;-82
2022/01/21 02:30:00;;;;;;;;;;;1.60;1.00;;;;;;5066436;28;19920;-82
2022/01/21 02:32:25;;;;;;;;;;;1.70;1.00;;;;;;5083397;28;19939;-82
2022/01/21 02:34:51;;;;;;;;;;;1.70;1.00;;;;;;5080455;28;19981;-82
2022/01/21 02:37:17;;;;;;;;;;;1.70;1.00;;;;;;5074233;28;19948;-82
2022/01/21 02:39:43;;;;;;;;;;;1.70;1.00;;;;;;5073537;28;19931;-82
2022/01/21 02:42:09;;;;;;;;;;;1.70;1.00;;;;;;5079523;28;20007;-82
2022/01/21 02:44:35;;;;;;;;;;;1.80;1.00;;;;;;5079255;28;19943;-82
2022/01/21 02:47:02;;;;;;;;;;;1.80;1.00;;;;;;5074949;28;20194;-82
2022/01/21 02:49:29;;;;;;;;;;;1.80;1.00;;;;;;5072160;28;19909;-82
2022/01/21 02:51:55;;;;;;;;;;;1.80;1.00;;;;;;5079426;28;19935;-82
2022/01/21 02:54:21;;;;;;;;;;;1.90;1.00;;;;;;5078237;28;19935;-82
2022/01/21 02:56:48;;;;;;;;;;;1.90;1.00;;;;;;5070386;28;19924;-82
2022/01/21 02:59:13;;;;;;;;;;;1.90;1.00;;;;;;5073026;28;19912;-82
2022/01/21 03:01:41;;;;;;;;;;;2.00;1.00;;;;;;5078449;28;20030;-82
2022/01/21 03:04:07;;;;;;;;;;;2.00;1.00;;;;;;5077268;28;19920;-82
2022/01/21 03:06:35;;;;;;;;;;;2.00;1.00;;;;;;5069425;28;19985;-82
2022/01/21 03:09:01;;;;;;;;;;;2.10;1.00;;;;;;5070680;28;19913;-82
2022/01/21 03:11:27;;;;;;;;;;;2.10;1.00;;;;;;5078801;28;19920;-82
2022/01/21 03:13:53;;;;;;;;;;;2.10;1.00;;;;;;5071825;28;19913;-84
2022/01/21 03:16:19;;;;;;;;;;;2.10;1.00;;;;;;5069912;28;19976;-82
2022/01/21 03:18:44;;;;;;;;;;;2.00;1.00;;;;;;5071930;28;19961;-82
2022/01/21 03:21:15;;;;;;;;;;;2.00;1.00;;;;;;5079947;28;19913;-82
2022/01/21 03:23:46;;;;;;;;;;;1.90;1.00;;;;;;5070012;28;19966;-82
2022/01/21 03:26:14;;;;;;;;;;;1.90;1.00;;;;;;5072046;28;20388;-82
2022/01/21 03:28:40;;;;;;;;;;;1.90;1.00;;;;;;5069708;28;19912;-83
2022/01/21 03:31:06;;;;;;;;;;;1.90;1.00;;;;;;5074522;28;19924;-82
2022/01/21 03:33:31;;;;;;;;;;;1.90;1.00;;;;;;5066302;28;19913;-82
2022/01/21 03:35:57;;;;;;;;;;;2.00;1.00;;;;;;5069392;28;19935;-82
2022/01/21 03:38:26;;;;;;;;;;;2.00;1.00;;;;;;5075639;28;19912;-82
2022/01/21 03:40:52;;;;;;;;;;;2.00;1.00;;;;;;5084140;28;19916;-82
2022/01/21 03:43:18;;;;;;;;;;;2.10;1.00;;;;;;5080491;28;19912;-82
2022/01/21 03:45:44;;;;;;;;;;;2.10;1.00;;;;;;5072247;28;19913;-81
2022/01/21 03:48:09;;;;;;;;;;;2.10;1.00;;;;;;5082337;28;19938;-82
2022/01/21 03:50:35;;;;;;;;;;;2.10;1.00;;;;;;5081247;28;19923;-82
2022/01/21 03:53:01;;;;;;;;;;;2.10;1.00;;;;;;5079759;28;19928;-82
2022/01/21 03:55:26;;;;;;;;;;;2.10;1.00;;;;;;5083632;28;20023;-83
2022/01/21 03:57:52;;;;;;;;;;;2.20;1.00;;;;;;5076382;28;19917;-82
2022/01/21 04:00:19;;;;;;;;;;;2.20;1.00;;;;;;5074792;28;19919;-82
2022/01/21 04:02:45;;;;;;;;;;;2.20;1.00;;;;;;5081742;28;19955;-83
2022/01/21 04:05:10;;;;;;;;;;;2.20;1.00;;;;;;5075949;28;19917;-83
2022/01/21 04:07:36;;;;;;;;;;;2.20;1.00;;;;;;5080214;28;19913;-83
2022/01/21 04:10:02;;;;;;;;;;;2.20;1.00;;;;;;5075816;28;19973;-82
2022/01/21 04:12:28;;;;;;;;;;;2.20;1.00;;;;;;5084812;28;19984;-83
2022/01/21 04:14:54;;;;;;;;;;;2.20;1.00;;;;;;5086076;28;19927;-83
2022/01/21 04:17:19;;;;;;;;;;;2.20;1.00;;;;;;5077277;28;19938;-82
2022/01/21 04:19:45;;;;;;;;;;;2.10;1.00;;;;;;5083432;28;19936;-82
2022/01/21 04:22:10;;;;;;;;;;;2.10;1.00;;;;;;5084510;28;19962;-82
2022/01/21 04:24:37;;;;;;;;;;;2.10;1.00;;;;;;5083147;28;20304;-82
2022/01/21 04:27:02;;;;;;;;;;;2.00;1.00;;;;;;5085811;28;19912;-82
2022/01/21 04:29:28;;;;;;;;;;;2.00;1.00;;;;;;5086664;28;19915;-82
2022/01/21 04:31:53;;;;;;;;;;;2.00;1.00;;;;;;5076396;28;20007;-82
2022/01/21 04:34:19;;;;;;;;;;;2.00;1.00;;;;;;5082102;28;19983;-83
2022/01/21 04:36:44;;;;;;;;;;;2.00;1.00;;;;;;5084250;28;19920;-82
2022/01/21 04:39:17;;;;;;;;;;;1.90;1.00;;;;;;5073058;28;19943;-82
2022/01/21 04:49:36;;;;;;;;;;;1.90;1.00;;;;;;5069772;28;20499;-83
2022/01/21 04:52:02;;;;;;;;;;;1.90;1.00;;;;;;5068506;28;19912;-82
2022/01/21 04:54:32;;;;;;;;;;;1.90;1.00;;;;;;5080936;28;19908;-82
2022/01/21 04:56:58;;;;;;;;;;;1.90;1.00;;;;;;5067363;28;20012;-82
2022/01/21 04:59:23;;;;;;;;;;;1.90;1.00;;;;;;5084530;28;19931;-82
2022/01/21 05:01:49;;;;;;;;;;;1.90;1.00;;;;;;5082843;28;19913;-82
2022/01/21 05:04:14;;;;;;;;;;;1.80;1.00;;;;;;5076556;28;19913;-83
2022/01/21 05:06:41;;;;;;;;;;;1.80;1.00;;;;;;5082326;28;19916;-83
2022/01/21 05:09:06;;;;;;;;;;;1.80;1.00;;;;;;5081573;28;19918;-82
2022/01/21 05:11:36;;;;;;;;;;;1.70;1.00;;;;;;5078189;28;20019;-82
2022/01/21 05:14:15;;;;;;;;;;;1.70;1.00;;;;;;5075794;28;19916;-82
2022/01/21 05:16:46;;;;;;;;;;;1.70;1.00;;;;;;5076628;28;19920;-82
2022/01/21 05:19:16;;;;;;;;;;;1.70;1.00;;;;;;5083236;28;19920;-82
2022/01/21 05:21:43;;;;;;;;;;;1.70;1.00;;;;;;5083236;28;19912;-82
2022/01/21 05:24:08;;;;;;;;;;;1.80;1.00;;;;;;5075749;28;19908;-82
2022/01/21 05:26:39;;;;;;;;;;;1.80;1.00;;;;;;5080817;28;20011;-82
2022/01/21 05:29:05;;;;;;;;;;;1.80;1.00;;;;;;5066390;28;19929;-82
2022/01/21 05:31:31;;;;;;;;;;;1.80;1.00;;;;;;5078639;28;19920;-82
2022/01/21 05:33:56;;;;;;;;;;;1.80;1.00;;;;;;5084847;28;19919;-83
2022/01/21 05:36:22;;;;;;;;;;;1.80;1.00;;;;;;5083237;28;19920;-82
2022/01/21 05:38:47;;;;;;;;;;;1.80;1.00;;;;;;5068956;28;20003;-82
2022/01/21 05:41:14;;;;;;;;;;;1.70;1.00;;;;;;5069878;28;20392;-82
2022/01/21 05:43:45;;;;;;;;;;;1.70;1.00;;;;;;5084981;28;20463;-82
2022/01/21 05:46:26;;;;;;;;;;;1.70;1.00;;;;;;5080344;28;19920;-83
2022/01/21 05:48:52;;;;;;;;;;;1.60;1.00;;;;;;5077298;28;19912;-83
2022/01/21 05:51:18;;;;;;;;;;;1.50;1.00;;;;;;5082924;28;19924;-82
2022/01/21 05:53:43;;;;;;;;;;;1.50;1.00;;;;;;5085039;28;19908;-82
2022/01/21 05:56:09;;;;;;;;;;;1.40;1.00;;;;;;5073314;28;19997;-82
2022/01/21 05:58:34;;;;;;;;;;;1.40;1.00;;;;;;5083545;28;19916;-82
2022/01/21 06:01:00;;;;;;;;;;;1.40;1.00;;;;;;5083508;28;19913;-83
2022/01/21 06:03:26;;;;;;;;;;;1.40;1.00;;;;;;5084633;28;19972;-82
2022/01/21 06:05:51;;;;;;;;;;;1.30;1.00;;;;;;5081650;28;19912;-83
2022/01/21 06:08:17;;;;;;;;;;;1.30;1.00;;;;;;5088796;28;20458;-82
2022/01/21 06:10:43;;;;;;;;;;;1.30;1.00;;;;;;5086560;28;19916;-83
2022/01/21 06:13:08;;;;;;;;;;;1.30;1.00;;;;;;5077346;28;19909;-84
2022/01/21 06:15:34;;;;;;;;;;;1.20;1.00;;;;;;5085742;28;19943;-83
2022/01/21 06:18:00;;;;;;;;;;;1.20;1.00;;;;;;5077402;28;20007;-82
2022/01/21 06:20:25;;;;;;;;;;;1.20;1.00;;;;;;5083731;28;19923;-83
2022/01/21 06:22:51;;;;;;;;;;;1.10;1.00;;;;;;5075748;28;19947;-83
2022/01/21 06:25:17;;;;;;;;;;;1.10;1.00;;;;;;5079767;28;19910;-83
2022/01/21 06:27:44;;;;;;;;;;;1.00;1.00;;;;;;5080534;28;20015;-82
2022/01/21 06:30:10;;;;;;;;;;;1.00;1.00;;;;;;5073561;28;19960;-83
2022/01/21 06:32:35;;;;;;;;;;;1.00;1.00;;;;;;5080279;28;19912;-82
2022/01/21 06:35:01;;;;;;;;;;;1.00;1.00;;;;;;5075888;28;19909;-82
2022/01/21 06:37:26;;;;;;;;;;;1.00;1.00;;;;;;5079221;28;19917;-83
2022/01/21 06:39:52;;;;;;;;;;;1.00;1.00;;;;;;5074406;28;19920;-82
2022/01/21 06:42:22;;;;;;;;;;;1.00;1.00;;;;;;5067361;28;20284;-83
2022/01/21 06:44:48;;;;;;;;;;;1.00;1.00;;;;;;5081181;28;19931;-82
2022/01/21 06:47:13;;;;;;;;;;;1.00;1.00;;;;;;5080021;28;20356;-82
2022/01/21 06:49:39;;;;;;;;;;;1.10;1.00;;;;;;5078241;28;19908;-84
2022/01/21 06:52:05;;;;;;;;;;;1.10;1.00;;;;;;5073718;28;19913;-82
2022/01/21 06:54:30;;;;;;;;;;;1.10;1.00;;;;;;5080827;28;20058;-82
2022/01/21 06:56:55;;;;;;;;;;;1.20;1.00;;;;;;5077360;28;19916;-84
2022/01/21 06:59:21;;;;;;;;;;;1.30;1.00;;;;;;5078849;28;19948;-82
2022/01/21 07:01:46;;;;;;;;;;;1.30;1.00;;;;;;5085152;28;19972;-83
2022/01/21 07:04:12;;;;;;;;;;;1.50;1.00;;;;;;5080176;28;19913;-83
2022/01/21 07:06:37;;;;;;;;;;;1.70;1.00;;;;;;5080391;28;19913;-84
2022/01/21 07:09:03;;;;;;;;;;;1.80;1.00;;;;;;5076126;28;19920;-82
2022/01/21 07:11:28;;;;;;;;;;;1.90;1.00;;;;;;5074258;28;19916;-82
2022/01/21 07:13:54;;;;;;;;;;;2.00;1.00;;;;;;5070944;28;19914;-83
2022/01/21 07:16:19;;;;;;;;;;;2.00;1.00;;;;;;5078991;28;19963;-84
2022/01/21 07:18:45;;;;;;;;;;;2.00;1.00;;;;;;5083571;28;19912;-83
2022/01/21 07:21:10;;;;;;;;;;;2.00;1.00;;;;;;5086906;28;19913;-83
2022/01/21 07:23:36;;;;;;;;;;;2.00;1.00;;;;;;5080557;28;19913;-83
2022/01/21 07:26:02;;;;;;;;;;;1.90;1.00;;;;;;5078140;28;19913;-83
2022/01/21 07:28:27;;;;;;;;;;;1.90;1.00;;;;;;5086954;28;19913;-83
2022/01/21 07:30:53;;;;;;;;;;;1.90;1.00;;;;;;5088069;28;19916;-83
2022/01/21 07:33:18;;;;;;;;;;;1.80;1.00;;;;;;5089090;28;20058;-83
2022/01/21 07:35:44;;;;;;;;;;;1.80;1.00;;;;;;5092616;28;19920;-83
2022/01/21 07:38:10;;;;;;;;;;;1.80;1.00;;;;;;5086159;28;20274;-83
2022/01/21 07:40:35;;;;;;;;;;;1.80;1.00;;;;;;5084355;28;19922;-83
2022/01/21 07:43:01;;;;;;;;;;;1.80;1.00;;;;;;5080158;28;19909;-83
2022/01/21 07:45:26;;;;;;;;;;;1.80;1.00;;;;;;5083572;28;19912;-83
2022/01/21 07:47:52;;;;;;;;;;;1.80;1.00;;;;;;5085335;28;19968;-83
2022/01/21 07:50:17;;;;;;;;;;;1.80;1.00;;;;;;5091211;28;19962;-83
2022/01/21 07:52:43;;;;;;;;;;;1.90;1.00;;;;;;5093115;28;19903;-83
2022/01/21 07:55:08;;;;;;;;;;;2.00;1.00;;;;;;5084022;28;19923;-83
2022/01/21 07:57:34;;;;;;;;;;;2.00;1.00;;;;;;5086369;28;19923;-83
2022/01/21 07:59:59;;;;;;;;;;;2.10;1.00;;;;;;5090968;28;19923;-83
2022/01/21 08:02:27;;;;;;;;;;;2.20;1.00;;;;;;5091190;28;19939;-83
2022/01/21 08:04:54;;;;;;;;;;;2.20;1.00;;;;;;5084802;28;19912;-83
2022/01/21 08:07:20;;;;;;;;;;;2.20;1.00;;;;;;5088170;28;19923;-83
2022/01/21 08:09:48;;;;;;;;;;;2.30;1.00;;;;;;5085952;28;20208;-83
2022/01/21 08:12:15;;;;;;;;;;;2.30;1.00;;;;;;5083593;28;19919;-83
2022/01/21 08:14:40;;;;;;;;;;;2.40;1.00;;;;;;5084652;28;19934;-83
2022/01/21 08:17:06;;;;;;;;;;;2.50;1.00;;;;;;5084940;28;19912;-83
2022/01/21 08:19:32;;;;;;;;;;;2.50;99.90;;;;;;5080601;28;19970;-83
2022/01/21 08:21:57;;;;;;;;;;;2.50;99.90;;;;;;5078144;28;19909;-83
2022/01/21 08:24:23;;;;;;;;;;;2.50;99.90;;;;;;5087552;28;19913;-83
2022/01/21 08:26:48;;;;;;;;;;;2.70;99.90;;;;;;5092740;28;19913;-83
2022/01/21 08:29:14;;;;;;;;;;;2.80;99.90;;;;;;5086930;28;19912;-83
2022/01/21 08:31:39;;;;;;;;;;;2.90;99.90;;;;;;5100084;28;19983;-83
2022/01/21 08:34:05;;;;;;;;;;;2.90;99.90;;;;;;5077493;28;19909;-83
2022/01/21 08:36:30;;;;;;;;;;;2.90;99.90;;;;;;5082762;28;19929;-83
2022/01/21 08:38:56;;;;;;;;;;;3.00;99.90;;;;;;5084799;28;19921;-83
2022/01/21 08:41:21;;;;;;;;;;;3.00;99.90;;;;;;5085306;28;19912;-84
2022/01/21 08:43:47;;;;;;;;;;;3.50;99.90;;;;;;5085096;28;20110;-84
2022/01/21 08:46:12;;;;;;;;;;;5.10;1.00;;;;;;5078823;28;19924;-84
2022/01/21 08:48:38;;;;;;;;;;;6.80;99.90;;;;;;5079222;28;19931;-85
2022/01/21 08:51:12;;;;;;;;;;;8.70;46.50;;;;;;5073182;28;19920;-84
2022/01/21 08:53:40;;;;;;;;;;;10.60;1.00;;;;;;5078660;28;19916;-84
2022/01/21 08:56:07;;;;;;;;;;;11.90;1.00;;;;;;5083845;28;19913;-83
2022/01/21 08:58:33;;;;;;;;;;;11.50;1.00;;;;;;5088651;28;19958;-83
2022/01/21 09:00:59;;;;;;;;;;;10.80;1.00;;;;;;5086216;28;19961;-82
2022/01/21 09:03:24;;;;;;;;;;;10.40;1.00;;;;;;5087936;28;19934;-82
2022/01/21 09:05:51;;;;;;;;;;;9.50;1.00;;;;;;5083678;28;19908;-82
2022/01/21 09:08:23;;;;;;;;;;;8.90;1.00;;;;;;5087240;28;19971;-82
2022/01/21 09:10:52;;;;;;;;;;;8.20;1.00;;;;;;5079107;28;19913;-82
2022/01/21 09:13:18;;;;;;;;;;;7.70;1.00;;;;;;5086009;28;20343;-82
2022/01/21 09:15:43;;;;;;;;;;;7.60;1.00;;;;;;5083959;28;19912;-82
2022/01/21 09:18:09;;;;;;;;;;;7.50;1.00;;;;;;5084161;28;19913;-83
2022/01/21 09:20:36;;;;;;;;;;;7.40;1.00;;;;;;5084792;28;19919;-82
2022/01/21 09:23:03;;;;;;;;;;;7.20;1.00;;;;;;5080977;28;19909;-84
2022/01/21 09:25:29;;;;;;;;;;;7.30;1.00;;;;;;5085484;28;19897;-83
2022/01/21 09:27:58;;;;;;;;;;;7.90;1.00;;;;;;5085702;28;19947;-83
2022/01/21 09:30:24;;;;;;;;;;;8.20;1.00;;;;;;5081590;28;19917;-83
2022/01/21 09:32:50;;;;;;;;;;;8.20;1.00;;;;;;5087874;28;19920;-83
2022/01/21 09:35:16;;;;;;;;;;;8.00;1.00;;;;;;5085089;28;19912;-83
2022/01/21 09:37:42;;;;;;;;;;;8.00;1.00;;;;;;5088843;28;19912;-83
2022/01/21 09:40:08;;;;;;;;;;;7.80;1.00;;;;;;5086309;28;19919;-83
2022/01/21 09:42:34;;;;;;;;;;;7.90;1.00;;;;;;5086987;28;19988;-83
2022/01/21 09:45:00;;;;;;;;;;;8.00;1.00;;;;;;5085650;28;19916;-84
2022/01/21 09:47:31;;;;;;;;;;;8.00;1.00;;;;;;5082108;28;19913;-83
2022/01/21 09:49:56;;;;;;;;;;;7.80;1.00;;;;;;5089277;28;19923;-83
2022/01/21 09:52:23;;;;;;;;;;;7.50;1.00;;;;;;5079125;28;19916;-82
2022/01/21 09:54:50;;;;;;;;;;;7.10;1.00;;;;;;5087292;28;20096;-83
2022/01/21 09:57:23;;;;;;;;;;;7.10;1.00;;;;;;5075967;28;19924;-83
2022/01/21 09:59:49;;;;;;;;;;;7.20;1.00;;;;;;5084714;28;20111;-83
2022/01/21 10:02:17;;;;;;;;;;;7.20;1.00;;;;;;5082459;28;19978;-82
2022/01/21 10:04:42;;;;;;;;;;;7.20;1.00;;;;;;5088070;28;19916;-83
2022/01/21 10:07:13;;;;;;;;;;;7.20;1.00;;;;;;5083355;28;19919;-82
2022/01/21 10:09:39;;;;;;;;;;;7.40;1.00;;;;;;5081445;28;19904;-82
2022/01/21 10:12:05;;;;;;;;;;;7.50;1.00;;;;;;5083374;28;19913;-82
2022/01/21 10:14:30;;;;;;;;;;;7.80;1.00;;;;;;5076298;28;19935;-83
2022/01/21 10:16:57;;;;;;;;;;;7.90;1.00;;;;;;5084107;28;19991;-82
2022/01/21 10:19:30;;;;;;;;;;;7.70;1.00;;;;;;5078828;28;19983;-82
2022/01/21 10:22:06;;;;;;;;;;;7.60;1.00;;;;;;5083496;28;19931;-83
2022/01/21 10:24:32;;;;;;;;;;;7.50;1.00;;;;;;5085600;28;20384;-83
2022/01/21 10:26:58;;;;;;;;;;;7.40;1.00;;;;;;5081474;28;19920;-82
2022/01/21 10:29:24;;;;;;;;;;;7.40;1.00;;;;;;5085743;28;19913;-82
2022/01/21 10:31:54;;;;;;;;;;;7.80;1.00;;;;;;5087335;28;19935;-83
2022/01/21 10:34:26;;;;;;;;;;;8.10;1.00;;;;;;5083956;28;19923;-82
2022/01/21 10:36:57;;;;;;;;;;;8.40;1.00;;;;;;5077983;28;19923;-82
2022/01/21 10:39:30;;;;;;;;;;;8.20;1.00;;;;;;5076874;28;19938;-83
2022/01/21 10:41:57;;;;;;;;;;;8.00;1.00;;;;;;5084005;28;19966;-84
2022/01/21 10:44:25;;;;;;;;;;;7.80;1.00;;;;;;5073752;28;19912;-82
2022/01/21 10:47:02;;;;;;;;;;;7.70;1.00;;;;;;5078924;28;19909;-82
2022/01/21 10:49:42;;;;;;;;;;;7.70;1.00;;;;;;5084112;28;19924;-81
2022/01/21 10:52:14;;;;;;;;;;;7.90;1.00;;;;;;5085295;28;19916;-82
2022/01/21 10:54:41;;;;;;;;;;;7.90;1.00;;;;;;5084136;28;20343;-83
2022/01/21 10:57:14;;;;;;;;;;;7.90;1.00;;;;;;5077834;28;19916;-82
2022/01/21 10:59:50;;;;;;;;;;;7.80;1.00;;;;;;5082960;28;20016;-82
2022/01/21 11:02:30;;;;;;;;;;;8.10;1.00;;;;;;5089749;28;19935;-82
2022/01/21 11:04:57;;;;;;;;;;;8.20;1.00;;;;;;5077432;28;19912;-82
2022/01/21 11:07:41;;;;;;;;;;;8.10;1.00;;;;;;5084353;28;19932;-82
2022/01/21 11:10:07;;;;;;;;;;;8.00;1.00;;;;;;5083966;28;19987;-82
2022/01/21 11:12:33;;;;;;;;;;;8.00;1.00;;;;;;5088947;28;19912;-82
2022/01/21 11:15:03;;;;;;;;;;;7.80;1.00;;;;;;5086219;28;19935;-82
2022/01/21 11:17:29;;;;;;;;;;;7.60;1.00;;;;;;5081414;28;19913;-83
2022/01/21 11:20:04;;;;;;;;;;;7.40;1.00;;;;;;5080182;28;19923;-82
2022/01/21 11:22:30;;;;;;;;;;;7.30;1.00;;;;;;5081656;28;20015;-82
2022/01/21 11:24:59;;;;;;;;;;;7.20;1.00;;;;;;5084469;28;19917;-82
2022/01/21 11:27:25;;;;;;;;;;;7.10;1.00;;;;;;5079390;28;19968;-83
2022/01/21 11:29:52;;;;;;;;;;;6.90;1.00;;;;;;5078984;28;19912;-82
2022/01/21 11:32:18;;;;;;;;;;;6.70;1.00;;;;;;5079649;28;19947;-82
2022/01/21 11:34:44;;;;;;;;;;;6.70;1.00;;;;;;5076042;28;19917;-82
2022/01/21 11:37:10;;;;;;;;;;;6.80;1.00;;;;;;5075322;28;20296;-82
2022/01/21 11:39:36;;;;;;;;;;;7.00;1.00;;;;;;5073970;28;19968;-82
2022/01/21 11:42:04;;;;;;;;;;;7.30;1.00;;;;;;5090049;28;20035;-82
2022/01/21 11:44:30;;;;;;;;;;;7.60;1.00;;;;;;5081481;28;19908;-81
2022/01/21 11:47:15;;;;;;;;;;;7.80;1.00;;;;;;5081749;28;19912;-81
2022/01/21 11:49:54;;;;;;;;;;;7.80;1.00;;;;;;5071216;28;19920;-82
2022/01/21 11:52:22;;;;;;;;;;;7.80;1.00;;;;;;5070716;28;19983;-81
2022/01/21 11:54:48;;;;;;;;;;;7.70;1.00;;;;;;5084967;28;20408;-82
2022/01/21 11:57:15;;;;;;;;;;;7.70;1.00;;;;;;5083106;28;19916;-82
2022/01/21 11:59:47;;;;;;;;;;;7.70;1.00;;;;;;5094785;28;20265;-82
2022/01/21 12:02:12;;;;;;;;;;;7.70;1.00;;;;;;5083998;28;19921;-82
2022/01/21 12:04:38;;;;;;;;;;;7.60;1.00;;;;;;5083610;28;19913;-82
2022/01/21 12:07:03;;;;;;;;;;;7.80;1.00;;;;;;5085967;28;19916;-82
2022/01/21 12:09:47;;;;;;;;;;;8.10;1.00;;;;;;5077810;28;19912;-82
2022/01/21 12:12:14;;;;;;;;;;;8.10;1.00;;;;;;5087907;28;19925;-83
2022/01/21 12:14:41;;;;;;;;;;;8.40;1.00;;;;;;5088172;28;19934;-80
2022/01/21 12:17:19;;;;;;;;;;;8.40;1.00;;;;;;5067631;28;19913;-82
2022/01/21 12:19:45;;;;;;;;;;;8.20;1.00;;;;;;5085361;28;19913;-81
2022/01/21 12:22:16;;;;;;;;;;;8.00;1.00;;;;;;5090852;28;19896;-81
2022/01/21 12:24:44;;;;;;;;;;;7.80;1.00;;;;;;5087599;28;19912;-81
2022/01/21 12:27:13;;;;;;;;;;;7.90;1.00;;;;;;5086706;28;20043;-82
2022/01/21 12:29:39;;;;;;;;;;;8.20;1.00;;;;;;5080129;28;19935;-81
2022/01/21 12:32:13;;;;;;;;;;;9.70;1.00;;;;;;5091820;28;19908;-81
2022/01/21 12:35:16;;;;;;;;;;;10.20;1.00;;;;;;5088613;28;20487;-82
2022/01/21 12:38:05;;;;;;;;;;;10.40;1.00;;;;;;5054456;28;19920;-82
2022/01/21 12:40:31;;;;;;;;;;;10.40;1.00;;;;;;5084570;28;19917;-81
2022/01/21 12:42:57;;;;;;;;;;;10.50;1.00;;;;;;5078168;28;19913;-82
2022/01/21 12:45:23;;;;;;;;;;;10.10;1.00;;;;;;5089947;28;19966;-81
2022/01/21 12:47:48;;;;;;;;;;;9.80;1.00;;;;;;5082718;28;19920;-81
2022/01/21 12:50:20;;;;;;;;;;;9.50;1.00;;;;;;5087197;28;19916;-83
2022/01/21 12:52:55;;;;;;;;;;;9.20;1.00;;;;;;5081770;28;19923;-81
2022/01/21 12:58:05;;;;;;;;;;;8.30;1.00;;;;;;5079455;28;19927;-81
2022/01/21 13:00:31;;;;;;;;;;;8.00;1.00;;;;;;5085612;28;19913;-81
2022/01/21 13:03:01;;;;;;;;;;;7.90;1.00;;;;;;5089951;28;19972;-81
2022/01/21 13:05:32;;;;;;;;;;;7.80;1.00;;;;;;5091027;28;19920;-81
2022/01/21 13:08:08;;;;;;;;;;;7.80;1.00;;;;;;5090373;28;19935;-81
2022/01/21 13:10:33;;;;;;;;;;;8.00;1.00;;;;;;5094988;28;19923;-82
2022/01/21 13:15:40;;;;;;;;;;;8.00;1.00;;;;;;5088953;28;20370;-81
2022/01/21 13:18:07;;;;;;;;;;;7.90;1.00;;;;;;5083599;28;19939;-82
2022/01/21 13:20:34;;;;;;;;;;;7.60;1.00;;;;;;5086868;28;19947;-82
2022/01/21 13:22:59;;;;;;;;;;;7.50;1.00;;;;;;5080049;28;19916;-82
2022/01/21 13:25:26;;;;;;;;;;;7.40;1.00;;;;;;5123892;28;19939;-81
2022/01/21 13:27:56;;;;;;;;;;;7.20;1.00;;;;;;5086639;28;19952;-81
2022/01/21 13:30:22;;;;;;;;;;;7.10;1.00;;;;;;5080197;28;19916;-81
2022/01/21 13:32:57;;;;;;;;;;;7.00;1.00;;;;;;5077105;28;19913;-82
2022/01/21 13:35:24;;;;;;;;;;;6.90;15.90;;;;;;5077078;28;19966;-81
2022/01/21 13:37:59;;;;;;;;;;;6.80;78.40;;;;;;5082130;28;19916;-81
2022/01/21 13:40:30;;;;;;;;;;;6.80;99.90;;;;;;5083072;28;19913;-81
2022/01/21 13:43:10;;;;;;;;;;;6.70;99.90;;;;;;5083223;28;19919;-82
2022/01/21 13:45:36;;;;;;;;;;;6.70;1.00;;;;;;5080145;28;19913;-81
2022/01/21 13:48:03;;;;;;;;;;;6.70;1.00;;;;;;5086006;28;19947;-82
2022/01/21 13:50:30;;;;;;;;;;;6.60;1.00;;;;;;5065881;28;19916;-81
2022/01/21 13:52:59;;;;;;;;;;;6.60;1.00;;;;;;5080220;28;19913;-83
2022/01/21 13:55:42;;;;;;;;;;;6.60;25.80;;;;;;5077812;28;19909;-80
2022/01/21 13:58:12;;;;;;;;;;;6.60;99.90;;;;;;5087063;28;19939;-81
2022/01/21 14:00:40;;;;;;;;;;;6.60;99.90;;;;;;5073601;28;19912;-81
2022/01/21 14:03:19;;;;;;;;;;;6.70;99.90;;;;;;5084757;28;19916;-82
2022/01/21 14:05:52;;;;;;;;;;;6.60;99.90;;;;;;5085981;28;19913;-81
2022/01/21 14:08:25;;;;;;;;;;;6.60;99.90;;;;;;5078555;28;20387;-81
2022/01/21 14:11:04;;;;;;;;;;;6.60;99.90;;;;;;5089702;28;19916;-81
2022/01/21 14:13:31;;;;;;;;;;;6.60;1.00;;;;;;5087511;28;19916;-81
2022/01/21 14:15:57;;;;;;;;;;;6.60;1.00;;;;;;5088748;28;20210;-82
2022/01/21 14:18:23;;;;;;;;;;;6.50;1.00;;;;;;5088210;28;19916;-81
2022/01/21 14:20:49;;;;;;;;;;;6.50;99.90;;;;;;5084680;28;19920;-81
2022/01/21 14:23:22;;;;;;;;;;;6.50;99.90;;;;;;5085321;28;19913;-81
2022/01/21 14:25:52;;;;;;;;;;;6.50;99.90;;;;;;5086077;28;20351;-81
2022/01/21 14:28:18;;;;;;;;;;;6.50;99.90;;;;;;5077803;28;19909;-81
2022/01/21 14:30:43;;;;;;;;;;;6.50;99.90;;;;;;5087794;28;19916;-82
2022/01/21 14:33:09;;;;;;;;;;;6.50;1.00;;;;;;5077876;28;19917;-81
2022/01/21 14:35:40;;;;;;;;;;;6.50;1.00;;;;;;5087812;28;19912;-81
2022/01/21 14:38:10;;;;;;;;;;;6.50;1.00;;;;;;5079863;28;19927;-81
2022/01/21 14:40:39;;;;;;;;;;;6.40;99.90;;;;;;5085712;28;19934;-81
2022/01/21 14:43:10;;;;;;;;;;;6.40;99.90;;;;;;5081454;28;19998;-81
2022/01/21 14:45:38;;;;;;;;;;;6.40;1.00;;;;;;5077310;28;19913;-81
2022/01/21 14:48:14;;;;;;;;;;;6.40;1.00;;;;;;5075898;28;20004;-82
2022/01/21 14:50:41;;;;;;;;;;;6.40;1.00;;;;;;5075730;28;19921;-82
2022/01/21 14:53:07;;;;;;;;;;;6.40;60.60;;;;;;5078480;28;19913;-81
2022/01/21 14:55:33;;;;;;;;;;;6.40;99.90;;;;;;5080865;28;19962;-83
2022/01/21 14:57:59;;;;;;;;;;;6.40;1.00;;;;;;5083765;28;20483;-81
2022/01/21 15:00:47;;;;;;;;;;;6.30;1.00;;;;;;5077923;28;19908;-82
2022/01/21 15:03:13;;;;;;;;;;;6.30;99.90;;;;;;5064285;28;19921;-80
2022/01/21 15:05:40;;;;;;;;;;;6.40;99.90;;;;;;5071962;28;19920;-81
2022/01/21 15:08:07;;;;;;;;;;;6.40;99.90;;;;;;5071653;28;19912;-81
2022/01/21 15:10:41;;;;;;;;;;;6.40;99.90;;;;;;5074542;28;19944;-81
2022/01/21 15:16:08;;;;;;;;;;;6.40;99.90;;;;;;5078848;28;19919;-81
2022/01/21 15:18:34;;;;;;;;;;;6.40;99.90;;;;;;5080064;28;19975;-80
2022/01/21 15:20:59;;;;;;;;;;;6.40;99.90;;;;;;5082192;28;20363;-80
2022/01/21 15:23:25;;;;;;;;;;;6.40;99.90;;;;;;5072783;28;19913;-81
2022/01/21 15:25:50;;;;;;;;;;;6.40;99.90;;;;;;5082223;28;19948;-81
2022/01/21 15:28:16;;;;;;;;;;;6.40;99.90;;;;;;5078951;28;19913;-80
2022/01/21 15:30:41;;;;;;;;;;;6.40;99.90;;;;;;5084950;28;19935;-80
2022/01/21 15:33:07;;;;;;;;;;;6.40;99.90;;;;;;5072978;28;20000;-80
2022/01/21 15:35:32;;;;;;;;;;;6.40;99.90;;;;;;5079490;28;19938;-80
2022/01/21 15:37:58;;;;;;;;;;;6.40;99.90;;;;;;5077204;28;19919;-80
2022/01/21 15:40:24;;;;;;;;;;;6.30;99.90;;;;;;5076505;28;19940;-80